createdAt,value
2018-05-24T00:00:32.747Z,11.77
2018-05-24T00:01:32.441Z,11.76
2018-05-24T00:02:32.409Z,11.74
2018-05-24T00:03:32.416Z,11.71
2018-05-24T00:04:32.414Z,11.71
2018-05-24T00:05:32.433Z,11.7
2018-05-24T00:06:32.410Z,11.78
2018-05-24T00:07:32.411Z,11.71
2018-05-24T00:08:32.483Z,11.7
2018-05-24T00:09:32.414Z,11.76
2018-05-24T00:10:32.416Z,11.74
2018-05-24T00:11:32.399Z,11.79
2018-05-24T00:12:32.447Z,11.73
2018-05-24T00:13:32.451Z,11.8
2018-05-24T00:14:32.422Z,11.8
2018-05-24T00:15:32.415Z,11.7
2018-05-24T00:16:32.411Z,11.69
2018-05-24T00:17:32.429Z,11.73
2018-05-24T00:18:32.509Z,11.64
2018-05-24T00:19:32.434Z,11.69
2018-05-24T00:20:32.424Z,11.76
2018-05-24T00:21:32.430Z,11.74
2018-05-24T00:22:32.813Z,11.76
2018-05-24T00:23:32.449Z,11.68
2018-05-24T00:24:32.470Z,11.75
2018-05-24T00:25:32.419Z,11.75
2018-05-24T00:26:32.425Z,11.76
2018-05-24T00:27:32.427Z,11.71
2018-05-24T00:28:32.433Z,11.7
2018-05-24T00:29:32.435Z,11.67
2018-05-24T00:30:32.598Z,11.7
2018-05-24T00:31:32.476Z,11.72
2018-05-24T00:32:32.665Z,11.69
2018-05-24T00:33:32.443Z,11.73
2018-05-24T00:34:32.438Z,11.74
2018-05-24T00:35:32.428Z,11.74
2018-05-24T00:36:32.445Z,11.67
2018-05-24T00:37:32.453Z,11.61
2018-05-24T00:38:32.430Z,11.55
2018-05-24T00:39:32.448Z,11.58
2018-05-24T00:40:32.446Z,11.6
2018-05-24T00:41:32.462Z,11.56
2018-05-24T00:42:32.437Z,11.51
2018-05-24T00:43:32.433Z,11.5
2018-05-24T00:44:32.440Z,11.46
2018-05-24T00:45:32.487Z,11.47
2018-05-24T00:46:32.514Z,11.48
2018-05-24T00:47:32.406Z,11.49
2018-05-24T00:48:32.434Z,11.39
2018-05-24T00:49:32.434Z,11.38
2018-05-24T00:50:32.443Z,11.45
2018-05-24T00:51:32.442Z,11.51
2018-05-24T00:52:32.567Z,11.48
2018-05-24T00:53:32.515Z,11.47
2018-05-24T00:54:32.881Z,11.54
2018-05-24T00:55:32.488Z,11.48
2018-05-24T00:56:32.553Z,11.46
2018-05-24T00:57:32.451Z,11.46
2018-05-24T00:58:32.503Z,11.45
2018-05-24T00:59:32.488Z,11.45
2018-05-24T01:00:32.444Z,11.5
2018-05-24T01:01:32.465Z,11.49
2018-05-24T01:02:32.467Z,11.4
2018-05-24T01:03:32.881Z,11.38
2018-05-24T01:04:32.433Z,11.41
2018-05-24T01:05:32.455Z,11.39
2018-05-24T01:06:32.462Z,11.37
2018-05-24T01:07:32.454Z,11.4
2018-05-24T01:08:32.463Z,11.47
2018-05-24T01:09:32.708Z,11.48
2018-05-24T01:10:32.456Z,11.44
2018-05-24T01:11:32.465Z,11.45
2018-05-24T01:12:32.444Z,11.38
2018-05-24T01:13:33.041Z,11.4
2018-05-24T01:14:32.464Z,11.44
2018-05-24T01:15:32.464Z,11.48
2018-05-24T01:16:32.473Z,11.41
2018-05-24T01:17:32.474Z,11.38
2018-05-24T01:18:32.542Z,11.43
2018-05-24T01:19:32.453Z,11.39
2018-05-24T01:20:32.453Z,11.38
2018-05-24T01:21:32.455Z,11.4
2018-05-24T01:22:32.445Z,11.4
2018-05-24T01:23:33.034Z,11.41
2018-05-24T01:24:32.497Z,11.41
2018-05-24T01:25:32.474Z,11.38
2018-05-24T01:26:32.501Z,11.37
2018-05-24T01:27:32.503Z,11.36
2018-05-24T01:28:32.449Z,11.38
2018-05-24T01:29:32.542Z,11.41
2018-05-24T01:30:32.599Z,11.4
2018-05-24T01:31:32.472Z,11.37
2018-05-24T01:32:32.485Z,11.34
2018-05-24T01:33:32.489Z,11.34
2018-05-24T01:34:32.473Z,11.31
2018-05-24T01:35:32.490Z,11.4
2018-05-24T01:36:32.467Z,11.42
2018-05-24T01:37:32.571Z,11.36
2018-05-24T01:38:32.536Z,11.35
2018-05-24T01:39:32.489Z,11.37
2018-05-24T01:40:32.479Z,11.38
2018-05-24T01:41:32.603Z,11.39
2018-05-24T01:42:32.473Z,11.42
2018-05-24T01:43:32.486Z,11.4
2018-05-24T01:44:32.484Z,11.37
2018-05-24T01:45:32.570Z,11.36
2018-05-24T01:46:32.510Z,11.36
2018-05-24T01:47:32.596Z,11.36
2018-05-24T01:48:32.493Z,11.26
2018-05-24T01:49:32.536Z,11.37
2018-05-24T01:50:32.604Z,11.4
2018-05-24T01:51:32.481Z,11.42
2018-05-24T01:52:32.488Z,11.41
2018-05-24T01:53:32.481Z,11.36
2018-05-24T01:54:32.519Z,11.41
2018-05-24T01:55:32.475Z,11.36
2018-05-24T01:56:32.486Z,11.3
2018-05-24T01:57:32.507Z,11.35
2018-05-24T01:58:32.546Z,11.32
2018-05-24T01:59:32.507Z,11.28
2018-05-24T02:00:32.550Z,11.3
2018-05-24T02:01:32.533Z,11.29
2018-05-24T02:02:32.525Z,11.3
2018-05-24T02:03:32.492Z,11.28
2018-05-24T02:04:32.481Z,11.25
2018-05-24T02:05:32.550Z,11.27
2018-05-24T02:06:32.493Z,11.24
2018-05-24T02:07:32.651Z,11.22
2018-05-24T02:08:32.482Z,11.22
2018-05-24T02:09:32.513Z,11.23
2018-05-24T02:10:32.523Z,11.22
2018-05-24T02:11:32.481Z,11.18
2018-05-24T02:12:32.653Z,11.21
2018-05-24T02:13:32.500Z,11.21
2018-05-24T02:14:32.485Z,11.17
2018-05-24T02:15:32.483Z,11.18
2018-05-24T02:16:32.522Z,11.16
2018-05-24T02:17:32.505Z,11.15
2018-05-24T02:18:32.475Z,11.16
2018-05-24T02:19:32.482Z,11.14
2018-05-24T02:20:32.526Z,11.11
2018-05-24T02:21:32.490Z,11.12
2018-05-24T02:22:32.506Z,11.11
2018-05-24T02:23:32.500Z,11.06
2018-05-24T02:24:32.518Z,11.03
2018-05-24T02:25:32.523Z,11.1
2018-05-24T02:26:32.500Z,11.11
2018-05-24T02:27:32.510Z,11.07
2018-05-24T02:28:32.509Z,11.11
2018-05-24T02:29:32.488Z,11.06
2018-05-24T02:30:32.543Z,11.05
2018-05-24T02:31:32.547Z,11.05
2018-05-24T02:32:32.513Z,11.03
2018-05-24T02:33:32.488Z,11.03
2018-05-24T02:34:32.509Z,11.01
2018-05-24T02:35:32.518Z,10.99
2018-05-24T02:36:32.506Z,11.02
2018-05-24T02:37:32.529Z,10.99
2018-05-24T02:38:32.514Z,11.01
2018-05-24T02:39:32.544Z,11.05
2018-05-24T02:40:32.521Z,11.01
2018-05-24T02:41:32.516Z,11.07
2018-05-24T02:42:32.539Z,11.01
2018-05-24T02:43:32.625Z,11.02
2018-05-24T02:44:32.553Z,10.99
2018-05-24T02:45:32.553Z,11.07
2018-05-24T02:46:32.564Z,11.08
2018-05-24T02:47:32.584Z,11.03
2018-05-24T02:48:32.545Z,11.02
2018-05-24T02:49:32.571Z,11.01
2018-05-24T02:50:32.574Z,11.04
2018-05-24T02:51:32.523Z,11.02
2018-05-24T02:52:32.578Z,11.04
2018-05-24T02:53:32.516Z,11.04
2018-05-24T02:54:32.554Z,11.09
2018-05-24T02:55:32.747Z,11.07
2018-05-24T02:56:32.584Z,11.1
2018-05-24T02:57:32.565Z,11.1
2018-05-24T02:58:32.534Z,11.07
2018-05-24T02:59:32.578Z,11.09
2018-05-24T03:00:32.713Z,11.14
2018-05-24T03:01:32.641Z,11.17
2018-05-24T03:02:32.506Z,11.15
2018-05-24T03:03:32.678Z,11.13
2018-05-24T03:04:32.603Z,11.13
2018-05-24T03:05:32.533Z,11.17
2018-05-24T03:06:32.534Z,11.09
2018-05-24T03:07:32.550Z,11.14
2018-05-24T03:08:32.554Z,11.08
2018-05-24T03:09:32.525Z,11.18
2018-05-24T03:10:32.973Z,11.27
2018-05-24T03:11:32.599Z,11.23
2018-05-24T03:12:32.546Z,11.16
2018-05-24T03:13:32.547Z,11.14
2018-05-24T03:14:32.584Z,11.17
2018-05-24T03:15:32.604Z,11.17
2018-05-24T03:16:32.533Z,11.19
2018-05-24T03:17:32.541Z,11.2
2018-05-24T03:18:32.563Z,11.12
2018-05-24T03:19:32.537Z,11.16
2018-05-24T03:20:32.540Z,11.13
2018-05-24T03:21:32.560Z,11.14
2018-05-24T03:22:32.559Z,11.2
2018-05-24T03:23:32.503Z,11.12
2018-05-24T03:24:32.519Z,11.19
2018-05-24T03:25:32.548Z,11.12
2018-05-24T03:26:32.530Z,11.14
2018-05-24T03:27:32.553Z,11.18
2018-05-24T03:28:32.527Z,11.2
2018-05-24T03:29:32.522Z,11.14
2018-05-24T03:30:32.552Z,11.12
2018-05-24T03:31:32.572Z,11.13
2018-05-24T03:32:32.534Z,11.17
2018-05-24T03:33:32.573Z,11.16
2018-05-24T03:34:32.570Z,11.18
2018-05-24T03:35:32.557Z,11.2
2018-05-24T03:36:32.540Z,11.14
2018-05-24T03:37:32.573Z,11.18
2018-05-24T03:38:32.547Z,11.18
2018-05-24T03:39:32.597Z,11.18
2018-05-24T03:40:32.534Z,11.14
2018-05-24T03:41:32.541Z,11.08
2018-05-24T03:42:32.525Z,11.05
2018-05-24T03:43:32.563Z,11.07
2018-05-24T03:44:32.579Z,11.09
2018-05-24T03:45:32.583Z,11.06
2018-05-24T03:46:32.572Z,11.03
2018-05-24T03:47:32.544Z,11.05
2018-05-24T03:48:32.649Z,11.05
2018-05-24T03:49:32.568Z,11.02
2018-05-24T03:50:32.567Z,11.05
2018-05-24T03:51:32.564Z,11.01
2018-05-24T03:52:32.540Z,10.98
2018-05-24T03:53:33.162Z,11.07
2018-05-24T03:54:32.546Z,11.09
2018-05-24T03:55:32.527Z,11.08
2018-05-24T03:56:33.097Z,11.05
2018-05-24T03:57:32.681Z,11.1
2018-05-24T03:58:32.639Z,11.13
2018-05-24T03:59:32.544Z,11.13
2018-05-24T04:00:32.570Z,11.11
2018-05-24T04:01:32.573Z,11.06
2018-05-24T04:02:32.587Z,11.07
2018-05-24T04:03:32.579Z,11.1
2018-05-24T04:04:32.584Z,11.09
2018-05-24T04:05:32.567Z,11.13
2018-05-24T04:06:32.607Z,11.16
2018-05-24T04:07:32.571Z,11.14
2018-05-24T04:08:33.022Z,11.11
2018-05-24T04:09:32.574Z,11.18
2018-05-24T04:10:32.604Z,11.16
2018-05-24T04:11:32.615Z,11.12
2018-05-24T04:12:32.566Z,11.13
2018-05-24T04:13:32.582Z,11.1
2018-05-24T04:14:32.553Z,11.13
2018-05-24T04:15:32.618Z,11.13
2018-05-24T04:16:32.559Z,11.16
2018-05-24T04:17:32.578Z,11.26
2018-05-24T04:18:32.597Z,11.27
2018-05-24T04:19:33.080Z,11.19
2018-05-24T04:20:32.580Z,11.21
2018-05-24T04:21:32.603Z,11.22
2018-05-24T04:22:32.620Z,11.2
2018-05-24T04:23:32.599Z,11.27
2018-05-24T04:24:32.575Z,11.23
2018-05-24T04:25:32.604Z,11.24
2018-05-24T04:26:32.553Z,11.27
2018-05-24T04:27:32.629Z,11.31
2018-05-24T04:28:32.581Z,11.25
2018-05-24T04:29:32.600Z,11.25
2018-05-24T04:30:32.581Z,11.28
2018-05-24T04:31:32.549Z,11.23
2018-05-24T04:32:32.549Z,11.29
2018-05-24T04:33:32.593Z,11.31
2018-05-24T04:34:32.562Z,11.33
2018-05-24T04:35:32.628Z,11.35
2018-05-24T04:36:32.560Z,11.36
2018-05-24T04:37:32.578Z,11.42
2018-05-24T04:38:32.577Z,11.4
2018-05-24T04:39:32.598Z,11.45
2018-05-24T04:40:32.575Z,11.39
2018-05-24T04:41:32.571Z,11.45
2018-05-24T04:42:32.569Z,11.46
2018-05-24T04:43:32.560Z,11.37
2018-05-24T04:44:32.559Z,11.4
2018-05-24T04:45:33.374Z,11.37
2018-05-24T04:46:32.602Z,11.49
2018-05-24T04:47:32.593Z,11.47
2018-05-24T04:48:32.613Z,11.46
2018-05-24T04:49:32.573Z,11.5
2018-05-24T04:50:32.593Z,11.44
2018-05-24T04:51:32.612Z,11.47
2018-05-24T04:52:32.576Z,11.41
2018-05-24T04:53:32.582Z,11.48
2018-05-24T04:54:32.946Z,11.5
2018-05-24T04:55:32.824Z,11.47
2018-05-24T04:56:32.689Z,11.45
2018-05-24T04:57:32.665Z,11.43
2018-05-24T04:58:32.596Z,11.49
2018-05-24T04:59:32.988Z,11.48
2018-05-24T05:00:32.641Z,11.44
2018-05-24T05:01:32.825Z,11.43
2018-05-24T05:02:32.631Z,11.48
2018-05-24T05:03:32.645Z,11.56
2018-05-24T05:04:32.668Z,11.48
2018-05-24T05:05:32.645Z,11.44
2018-05-24T05:06:32.663Z,11.46
2018-05-24T05:07:32.607Z,11.53
2018-05-24T05:08:32.617Z,11.58
2018-05-24T05:09:32.591Z,11.6
2018-05-24T05:10:32.899Z,11.56
2018-05-24T05:11:32.632Z,11.55
2018-05-24T05:12:32.656Z,11.47
2018-05-24T05:13:33.980Z,11.47
2018-05-24T05:14:32.958Z,11.49
2018-05-24T05:15:32.627Z,11.51
2018-05-24T05:16:33.071Z,11.61
2018-05-24T05:17:32.685Z,11.61
2018-05-24T05:18:32.660Z,11.58
2018-05-24T05:19:32.955Z,11.65
2018-05-24T05:20:32.611Z,11.59
2018-05-24T05:21:32.640Z,11.57
2018-05-24T05:22:32.633Z,11.65
2018-05-24T05:23:32.787Z,11.61
2018-05-24T05:24:32.688Z,11.62
2018-05-24T05:25:32.636Z,11.67
2018-05-24T05:26:32.620Z,11.6
2018-05-24T05:27:33.295Z,11.62
2018-05-24T05:28:32.644Z,11.65
2018-05-24T05:29:32.651Z,11.76
2018-05-24T05:30:33.103Z,11.71
2018-05-24T05:31:32.740Z,11.69
2018-05-24T05:32:32.695Z,11.65
2018-05-24T05:33:32.622Z,11.6
2018-05-24T05:34:32.710Z,11.7
2018-05-24T05:35:32.639Z,11.65
2018-05-24T05:36:32.701Z,11.63
2018-05-24T05:37:33.192Z,11.66
2018-05-24T05:38:32.654Z,11.64
2018-05-24T05:39:32.663Z,11.63
2018-05-24T05:40:33.103Z,11.61
2018-05-24T05:41:32.674Z,11.63
2018-05-24T05:42:32.656Z,11.61
2018-05-24T05:43:32.625Z,11.71
2018-05-24T05:44:32.628Z,11.68
2018-05-24T05:45:32.643Z,11.66
2018-05-24T05:46:32.603Z,11.68
2018-05-24T05:47:32.691Z,11.69
2018-05-24T05:48:32.640Z,11.6
2018-05-24T05:49:32.676Z,11.7
2018-05-24T05:50:32.597Z,11.68
2018-05-24T05:51:32.612Z,11.65
2018-05-24T05:52:32.665Z,11.64
2018-05-24T05:53:32.632Z,11.72
2018-05-24T05:54:33.353Z,11.67
2018-05-24T05:55:33.371Z,11.65
2018-05-24T05:56:33.392Z,11.68
2018-05-24T05:57:33.374Z,11.7
2018-05-24T05:58:33.381Z,11.72
2018-05-24T05:59:33.326Z,11.72
2018-05-24T06:00:33.322Z,11.74
2018-05-24T06:01:33.850Z,11.72
2018-05-24T06:02:33.363Z,11.77
2018-05-24T06:03:33.314Z,11.75
2018-05-24T06:04:33.364Z,11.71
2018-05-24T06:05:33.381Z,11.68
2018-05-24T06:06:33.372Z,11.71
2018-05-24T06:07:33.375Z,11.71
2018-05-24T06:08:33.396Z,11.7
2018-05-24T06:09:33.697Z,11.71
2018-05-24T06:10:33.386Z,11.76
2018-05-24T06:11:33.365Z,11.73
2018-05-24T06:12:33.017Z,11.69
2018-05-24T06:13:33.419Z,11.68
2018-05-24T06:14:33.434Z,11.76
2018-05-24T06:15:33.745Z,11.79
2018-05-24T06:16:33.496Z,11.71
2018-05-24T06:17:33.373Z,11.7
2018-05-24T06:18:33.598Z,11.71
2018-05-24T06:19:33.353Z,11.7
2018-05-24T06:20:33.411Z,11.77
2018-05-24T06:21:33.913Z,11.81
2018-05-24T06:22:33.345Z,11.76
2018-05-24T06:23:33.395Z,11.82
2018-05-24T06:24:33.519Z,11.79
2018-05-24T06:25:33.411Z,11.77
2018-05-24T06:26:33.501Z,11.78
2018-05-24T06:27:33.399Z,11.78
2018-05-24T06:28:34.524Z,11.76
2018-05-24T06:29:33.391Z,11.78
2018-05-24T06:30:33.464Z,11.81
2018-05-24T06:31:33.370Z,11.85
2018-05-24T06:32:33.409Z,11.84
2018-05-24T06:33:33.554Z,11.84
2018-05-24T06:34:33.455Z,11.88
2018-05-24T06:35:33.363Z,11.9
2018-05-24T06:36:33.478Z,11.89
2018-05-24T06:37:33.505Z,11.87
2018-05-24T06:38:33.503Z,11.87
2018-05-24T06:39:33.507Z,11.94
2018-05-24T06:40:34.213Z,11.92
2018-05-24T06:41:33.429Z,11.91
2018-05-24T06:42:33.417Z,11.98
2018-05-24T06:43:33.479Z,11.98
2018-05-24T06:44:33.311Z,11.96
2018-05-24T06:45:33.386Z,11.94
2018-05-24T06:46:34.111Z,11.96
2018-05-24T06:47:33.568Z,12.01
2018-05-24T06:48:33.442Z,11.98
2018-05-24T06:49:33.316Z,12.02
2018-05-24T06:50:33.381Z,12.02
2018-05-24T06:51:33.401Z,12.03
2018-05-24T06:52:33.427Z,12.04
2018-05-24T06:53:33.693Z,12.01
2018-05-24T06:54:32.672Z,12.06
2018-05-24T06:55:32.772Z,12.01
2018-05-24T06:56:32.732Z,12.02
2018-05-24T06:57:32.656Z,12.1
2018-05-24T06:58:32.716Z,12.01
2018-05-24T06:59:32.663Z,12.07
2018-05-24T07:00:32.657Z,12.04
2018-05-24T07:01:32.691Z,12.08
2018-05-24T07:02:32.682Z,12.03
2018-05-24T07:03:32.691Z,12.09
2018-05-24T07:04:32.659Z,12.05
2018-05-24T07:05:32.677Z,12.1
2018-05-24T07:06:32.656Z,12.09
2018-05-24T07:07:32.659Z,12.09
2018-05-24T07:08:32.685Z,12.06
2018-05-24T07:09:32.675Z,12.08
2018-05-24T07:10:32.696Z,12.12
2018-05-24T07:11:32.649Z,12.1
2018-05-24T07:12:32.668Z,12.08
2018-05-24T07:13:32.658Z,12.11
2018-05-24T07:14:32.658Z,12.15
2018-05-24T07:15:32.744Z,12.12
2018-05-24T07:16:32.659Z,12.15
2018-05-24T07:17:32.656Z,12.18
2018-05-24T07:18:33.680Z,12.19
2018-05-24T07:19:32.659Z,12.14
2018-05-24T07:20:32.651Z,12.15
2018-05-24T07:21:32.658Z,12.13
2018-05-24T07:22:32.657Z,12.2
2018-05-24T07:23:32.672Z,12.16
2018-05-24T07:24:33.778Z,12.13
2018-05-24T07:25:32.664Z,12.18
2018-05-24T07:26:32.686Z,12.17
2018-05-24T07:27:32.668Z,12.14
2018-05-24T07:28:32.658Z,12.13
2018-05-24T07:29:32.656Z,12.17
2018-05-24T07:30:32.676Z,12.15
2018-05-24T07:31:32.653Z,12.16
2018-05-24T07:32:32.729Z,12.17
2018-05-24T07:33:32.667Z,12.17
2018-05-24T07:34:32.653Z,12.2
2018-05-24T07:35:32.653Z,12.18
2018-05-24T07:36:32.675Z,12.18
2018-05-24T07:37:32.684Z,12.21
2018-05-24T07:38:32.663Z,12.22
2018-05-24T07:39:32.693Z,12.21
2018-05-24T07:40:32.663Z,12.22
2018-05-24T07:41:32.687Z,12.19
2018-05-24T07:42:32.677Z,12.19
2018-05-24T07:43:33.721Z,12.22
2018-05-24T07:44:32.682Z,12.25
2018-05-24T07:45:32.709Z,12.24
2018-05-24T07:46:32.682Z,12.25
2018-05-24T07:47:32.728Z,12.3
2018-05-24T07:48:32.742Z,12.26
2018-05-24T07:49:33.460Z,12.26
2018-05-24T07:50:32.711Z,12.3
2018-05-24T07:51:32.681Z,12.42
2018-05-24T07:52:33.457Z,12.35
2018-05-24T07:53:33.522Z,12.32
2018-05-24T07:54:33.452Z,12.31
2018-05-24T07:55:33.565Z,12.3
2018-05-24T07:56:33.425Z,12.29
2018-05-24T07:57:33.404Z,12.3
2018-05-24T07:58:33.450Z,12.27
2018-05-24T07:59:33.446Z,12.31
2018-05-24T08:00:33.396Z,12.28
2018-05-24T08:01:33.877Z,12.28
2018-05-24T08:02:33.537Z,12.29
2018-05-24T08:03:33.730Z,12.3
2018-05-24T08:04:33.527Z,12.31
2018-05-24T08:05:33.411Z,12.36
2018-05-24T08:06:33.337Z,12.33
2018-05-24T08:07:33.332Z,12.33
2018-05-24T08:08:33.933Z,12.36
2018-05-24T08:09:33.409Z,12.33
2018-05-24T08:10:33.431Z,12.36
2018-05-24T08:11:33.472Z,12.38
2018-05-24T08:12:33.503Z,12.43
2018-05-24T08:13:33.457Z,12.37
2018-05-24T08:14:33.473Z,12.42
2018-05-24T08:15:33.420Z,12.43
2018-05-24T08:16:33.419Z,12.43
2018-05-24T08:17:33.416Z,12.43
2018-05-24T08:18:33.454Z,12.37
2018-05-24T08:19:33.593Z,12.34
2018-05-24T08:20:33.479Z,12.31
2018-05-24T08:21:33.480Z,12.31
2018-05-24T08:22:34.125Z,12.42
2018-05-24T08:23:33.434Z,12.4
2018-05-24T08:24:33.457Z,12.43
2018-05-24T08:25:33.510Z,12.41
2018-05-24T08:26:33.657Z,12.41
2018-05-24T08:27:33.464Z,12.45
2018-05-24T08:28:33.499Z,12.48
2018-05-24T08:29:33.537Z,12.48
2018-05-24T08:30:33.451Z,12.49
2018-05-24T08:31:33.465Z,12.46
2018-05-24T08:32:33.831Z,12.5
2018-05-24T08:33:33.457Z,12.45
2018-05-24T08:34:33.433Z,12.43
2018-05-24T08:35:33.446Z,12.48
2018-05-24T08:36:33.455Z,12.48
2018-05-24T08:37:33.430Z,12.48
2018-05-24T08:38:33.454Z,12.6
2018-05-24T08:39:33.426Z,12.56
2018-05-24T08:40:33.890Z,12.51
2018-05-24T08:41:33.407Z,12.62
2018-05-24T08:42:33.435Z,12.69
2018-05-24T08:43:33.503Z,12.66
2018-05-24T08:44:33.464Z,12.65
2018-05-24T08:45:33.526Z,12.59
2018-05-24T08:46:33.532Z,12.7
2018-05-24T08:47:33.518Z,12.84
2018-05-24T08:48:33.557Z,12.81
2018-05-24T08:49:33.431Z,12.87
2018-05-24T08:50:33.455Z,12.8
2018-05-24T08:51:33.489Z,12.74
2018-05-24T08:52:33.419Z,12.8
2018-05-24T08:53:33.457Z,12.94
2018-05-24T08:54:32.711Z,12.94
2018-05-24T08:55:32.756Z,12.92
2018-05-24T08:56:32.742Z,13.03
2018-05-24T08:57:32.693Z,12.83
2018-05-24T08:58:32.785Z,12.68
2018-05-24T08:59:32.726Z,12.59
2018-05-24T09:00:32.704Z,12.73
2018-05-24T09:01:34.390Z,12.68
2018-05-24T09:02:32.767Z,12.74
2018-05-24T09:03:32.741Z,12.6
2018-05-24T09:04:32.768Z,12.73
2018-05-24T09:05:32.798Z,12.84
2018-05-24T09:06:32.729Z,12.89
2018-05-24T09:07:32.735Z,12.79
2018-05-24T09:08:32.735Z,12.86
2018-05-24T09:09:32.752Z,12.95
2018-05-24T09:10:32.751Z,13.04
2018-05-24T09:11:33.080Z,12.96
2018-05-24T09:12:32.734Z,12.92
2018-05-24T09:13:32.701Z,12.7
2018-05-24T09:14:32.806Z,12.73
2018-05-24T09:15:33.095Z,12.82
2018-05-24T09:16:32.737Z,12.87
2018-05-24T09:17:32.746Z,12.85
2018-05-24T09:18:32.726Z,12.91
2018-05-24T09:19:32.811Z,12.83
2018-05-24T09:20:32.932Z,12.79
2018-05-24T09:21:32.914Z,12.86
2018-05-24T09:22:32.744Z,13.02
2018-05-24T09:23:32.744Z,13.08
2018-05-24T09:24:32.822Z,13.12
2018-05-24T09:25:32.733Z,13.01
2018-05-24T09:26:32.712Z,13.16
2018-05-24T09:27:32.701Z,13.19
2018-05-24T09:28:32.745Z,13.18
2018-05-24T09:29:32.881Z,13.24
2018-05-24T09:30:32.748Z,13.28
2018-05-24T09:31:32.757Z,13.26
2018-05-24T09:32:32.721Z,13.2
2018-05-24T09:33:32.736Z,13.15
2018-05-24T09:34:32.763Z,13.19
2018-05-24T09:35:32.784Z,13.16
2018-05-24T09:36:32.759Z,13.14
2018-05-24T09:37:32.753Z,13.18
2018-05-24T09:38:32.823Z,13.08
2018-05-24T09:39:32.741Z,13.03
2018-05-24T09:40:32.744Z,13.03
2018-05-24T09:41:33.078Z,13.11
2018-05-24T09:42:32.943Z,13
2018-05-24T09:43:32.772Z,13.09
2018-05-24T09:44:32.730Z,13.05
2018-05-24T09:45:32.741Z,13.04
2018-05-24T09:46:32.753Z,12.89
2018-05-24T09:47:32.734Z,12.91
2018-05-24T09:48:32.753Z,13.03
2018-05-24T09:49:32.733Z,12.88
2018-05-24T09:50:32.750Z,12.9
2018-05-24T09:51:32.787Z,12.97
2018-05-24T09:52:32.744Z,13.14
2018-05-24T09:53:32.764Z,12.99
2018-05-24T09:54:32.753Z,13.07
2018-05-24T09:55:32.979Z,13.07
2018-05-24T09:56:32.781Z,13.11
2018-05-24T09:57:32.857Z,13.14
2018-05-24T09:58:32.786Z,13.19
2018-05-24T09:59:32.740Z,13.18
2018-05-24T10:00:32.745Z,13.16
2018-05-24T10:01:32.751Z,13.21
2018-05-24T10:02:32.740Z,13.18
2018-05-24T10:03:32.727Z,13.24
2018-05-24T10:04:33.240Z,13.13
2018-05-24T10:05:32.779Z,13.14
2018-05-24T10:06:32.747Z,13.28
2018-05-24T10:07:32.755Z,13.18
2018-05-24T10:08:33.553Z,13.21
2018-05-24T10:09:32.736Z,13.27
2018-05-24T10:10:33.379Z,13.25
2018-05-24T10:11:32.990Z,13.21
2018-05-24T10:12:32.805Z,13.13
2018-05-24T10:13:32.840Z,13.19
2018-05-24T10:14:32.780Z,13.26
2018-05-24T10:15:32.774Z,13.36
2018-05-24T10:16:33.730Z,13.33
2018-05-24T10:17:32.765Z,13.39
2018-05-24T10:18:32.799Z,13.36
2018-05-24T10:19:32.743Z,13.24
2018-05-24T10:20:32.748Z,13.29
2018-05-24T10:21:32.748Z,13.05
2018-05-24T10:22:32.790Z,13.13
2018-05-24T10:23:33.397Z,13.14
2018-05-24T10:24:32.818Z,13.08
2018-05-24T10:25:32.787Z,13.1
2018-05-24T10:26:32.785Z,13.19
2018-05-24T10:27:32.758Z,13.26
2018-05-24T10:28:33.663Z,13.32
2018-05-24T10:29:32.818Z,13.34
2018-05-24T10:30:32.855Z,13.29
2018-05-24T10:31:32.780Z,13.26
2018-05-24T10:32:32.797Z,13.24
2018-05-24T10:33:32.777Z,13.23
2018-05-24T10:34:32.848Z,13.25
2018-05-24T10:35:32.819Z,13.27
2018-05-24T10:36:32.782Z,13.18
2018-05-24T10:37:35.027Z,13.2
2018-05-24T10:38:32.874Z,13.16
2018-05-24T10:39:33.267Z,13.31
2018-05-24T10:40:34.980Z,13.4
2018-05-24T10:41:32.799Z,13.35
2018-05-24T10:42:32.769Z,13.35
2018-05-24T10:43:35.374Z,13.49
2018-05-24T10:44:32.823Z,13.42
2018-05-24T10:45:32.772Z,13.47
2018-05-24T10:46:32.788Z,13.4
2018-05-24T10:47:32.804Z,13.45
2018-05-24T10:48:32.801Z,13.31
2018-05-24T10:49:32.784Z,13.19
2018-05-24T10:50:32.825Z,13.41
2018-05-24T10:51:32.855Z,13.52
2018-05-24T10:52:32.790Z,13.44
2018-05-24T10:53:33.037Z,13.11
2018-05-24T10:54:32.847Z,13.28
2018-05-24T10:55:32.789Z,13.43
2018-05-24T10:56:32.861Z,13.42
2018-05-24T10:57:32.884Z,13.47
2018-05-24T10:58:32.976Z,13.74
2018-05-24T10:59:33.446Z,13.82
2018-05-24T11:00:32.785Z,13.59
2018-05-24T11:01:32.796Z,13.6
2018-05-24T11:02:32.789Z,13.48
2018-05-24T11:03:32.908Z,13.54
2018-05-24T11:04:32.784Z,13.68
2018-05-24T11:05:32.794Z,13.77
2018-05-24T11:06:32.957Z,13.58
2018-05-24T11:07:32.875Z,13.62
2018-05-24T11:08:32.776Z,13.6
2018-05-24T11:09:32.942Z,13.55
2018-05-24T11:10:32.967Z,13.4
2018-05-24T11:11:33.191Z,13.59
2018-05-24T11:12:32.872Z,13.49
2018-05-24T11:13:32.812Z,13.57
2018-05-24T11:14:32.818Z,13.49
2018-05-24T11:15:33.003Z,13.4
2018-05-24T11:16:32.889Z,13.2
2018-05-24T11:17:32.815Z,13.31
2018-05-24T11:18:32.905Z,13.25
2018-05-24T11:19:32.991Z,13.12
2018-05-24T11:20:33.023Z,13.36
2018-05-24T11:21:33.003Z,13.14
2018-05-24T11:22:32.938Z,13
2018-05-24T11:23:32.940Z,13.09
2018-05-24T11:24:32.800Z,13.37
2018-05-24T11:25:32.876Z,13.45
2018-05-24T11:26:32.838Z,13.37
2018-05-24T11:27:32.832Z,13.32
2018-05-24T11:28:32.835Z,13.32
2018-05-24T11:29:32.992Z,13.11
2018-05-24T11:30:32.819Z,13.05
2018-05-24T11:31:32.898Z,13.53
2018-05-24T11:32:32.876Z,13.57
2018-05-24T11:33:32.917Z,13.53
2018-05-24T11:34:33.026Z,13.71
2018-05-24T11:35:32.943Z,13.24
2018-05-24T11:36:32.964Z,13.33
2018-05-24T11:37:32.953Z,13.42
2018-05-24T11:38:33.050Z,13.59
2018-05-24T11:39:32.873Z,13.66
2018-05-24T11:40:32.869Z,13.51
2018-05-24T11:41:32.953Z,13.51
2018-05-24T11:42:32.982Z,13.53
2018-05-24T11:43:32.984Z,13.5
2018-05-24T11:44:32.987Z,13.36
2018-05-24T11:45:33.105Z,13.25
2018-05-24T11:46:32.864Z,13.15
2018-05-24T11:47:32.881Z,13.23
2018-05-24T11:48:32.832Z,13.21
2018-05-24T11:49:32.825Z,13.4
2018-05-24T11:50:32.833Z,13.43
2018-05-24T11:51:32.959Z,13.51
2018-05-24T11:52:32.816Z,13.58
2018-05-24T11:53:32.949Z,13.61
2018-05-24T11:54:32.840Z,13.55
2018-05-24T11:55:32.969Z,13.64
2018-05-24T11:56:32.979Z,13.59
2018-05-24T11:57:32.834Z,13.48
2018-05-24T11:58:32.828Z,13.56
2018-05-24T11:59:32.987Z,13.66
2018-05-24T12:00:32.938Z,13.48
2018-05-24T12:01:32.829Z,13.56
2018-05-24T12:02:32.805Z,13.51
2018-05-24T12:03:32.888Z,13.48
2018-05-24T12:04:32.862Z,13.31
2018-05-24T12:05:32.937Z,13.33
2018-05-24T12:06:32.856Z,13.54
2018-05-24T12:07:32.825Z,13.55
2018-05-24T12:08:32.829Z,13.59
2018-05-24T12:09:32.855Z,13.65
2018-05-24T12:10:32.834Z,13.65
2018-05-24T12:11:32.985Z,13.63
2018-05-24T12:12:32.847Z,13.45
2018-05-24T12:13:32.860Z,13.65
2018-05-24T12:14:32.854Z,13.67
2018-05-24T12:15:32.839Z,13.63
2018-05-24T12:16:32.834Z,13.68
2018-05-24T12:17:32.911Z,13.58
2018-05-24T12:18:32.866Z,13.38
2018-05-24T12:19:32.864Z,13.19
2018-05-24T12:20:32.848Z,13
2018-05-24T12:21:32.879Z,13.11
2018-05-24T12:22:32.846Z,13.18
2018-05-24T12:23:32.983Z,13.23
2018-05-24T12:24:32.865Z,13.32
2018-05-24T12:25:32.984Z,13.33
2018-05-24T12:26:32.885Z,13.29
2018-05-24T12:27:33.039Z,13.19
2018-05-24T12:28:32.896Z,13.45
2018-05-24T12:29:32.874Z,13.57
2018-05-24T12:30:32.854Z,13.61
2018-05-24T12:31:32.836Z,13.63
2018-05-24T12:32:33.016Z,13.49
2018-05-24T12:33:32.867Z,13.61
2018-05-24T12:34:32.869Z,13.66
2018-05-24T12:35:33.987Z,13.77
2018-05-24T12:36:33.015Z,13.69
2018-05-24T12:37:32.922Z,13.65
2018-05-24T12:38:33.064Z,13.53
2018-05-24T12:39:32.838Z,13.4
2018-05-24T12:40:32.857Z,13.5
2018-05-24T12:41:33.644Z,13.64
2018-05-24T12:42:32.892Z,13.6
2018-05-24T12:43:32.845Z,13.46
2018-05-24T12:44:33.047Z,13.47
2018-05-24T12:45:32.899Z,13.4
2018-05-24T12:46:32.929Z,13.29
2018-05-24T12:47:32.859Z,13.33
2018-05-24T12:48:32.887Z,13.62
2018-05-24T12:49:33.144Z,13.48
2018-05-24T12:50:32.926Z,13.09
2018-05-24T12:51:32.919Z,13.26
2018-05-24T12:52:33.017Z,13.25
2018-05-24T12:53:33.977Z,12.99
2018-05-24T12:54:32.863Z,13.09
2018-05-24T12:55:32.969Z,13.07